sensor_id;sensor_type;location;lat;lon;timestamp;temperature;humidity
60293;DHT22;52402;52.670;6.750;2023-11-22T00:01:11;1.60;99.90
60293;DHT22;52402;52.670;6.750;2023-11-22T00:03:37;1.50;99.90
60293;DHT22;52402;52.670;6.750;2023-11-22T00:06:03;1.50;99.90
60293;DHT22;52402;52.670;6.750;2023-11-22T00:08:28;1.50;99.90
60293;DHT22;52402;52.670;6.750;2023-11-22T00:10:55;1.50;99.90
60293;DHT22;52402;52.670;6.750;2023-11-22T00:13:20;1.50;99.90
60293;DHT22;52402;52.670;6.750;2023-11-22T00:15:46;1.50;99.90
60293;DHT22;52402;52.670;6.750;2023-11-22T00:18:11;1.50;99.90
60293;DHT22;52402;52.670;6.750;2023-11-22T00:20:40;1.50;99.90
60293;DHT22;52402;52.670;6.750;2023-11-22T00:23:07;1.50;99.90
60293;DHT22;52402;52.670;6.750;2023-11-22T00:25:33;1.40;99.90
60293;DHT22;52402;52.670;6.750;2023-11-22T00:28:01;1.40;99.90
60293;DHT22;52402;52.670;6.750;2023-11-22T00:30:27;1.40;99.90
60293;DHT22;52402;52.670;6.750;2023-11-22T00:32:58;1.40;99.90
60293;DHT22;52402;52.670;6.750;2023-11-22T00:35:23;1.30;99.90
60293;DHT22;52402;52.670;6.750;2023-11-22T00:37:51;1.30;99.90
60293;DHT22;52402;52.670;6.750;2023-11-22T00:40:17;1.30;99.90
60293;DHT22;52402;52.670;6.750;2023-11-22T00:42:48;1.20;99.90
60293;DHT22;52402;52.670;6.750;2023-11-22T00:45:16;1.20;99.90
60293;DHT22;52402;52.670;6.750;2023-11-22T00:47:43;1.10;99.90
60293;DHT22;52402;52.670;6.750;2023-11-22T00:50:09;1.10;99.90
60293;DHT22;52402;52.670;6.750;2023-11-22T00:52:37;1.10;99.90
60293;DHT22;52402;52.670;6.750;2023-11-22T00:55:03;1.10;99.90
60293;DHT22;52402;52.670;6.750;2023-11-22T00:57:31;1.10;99.90
60293;DHT22;52402;52.670;6.750;2023-11-22T00:59:59;1.00;99.90
60293;DHT22;52402;52.670;6.750;2023-11-22T01:02:25;1.10;99.90
60293;DHT22;52402;52.670;6.750;2023-11-22T01:04:58;1.00;99.90
60293;DHT22;52402;52.670;6.750;2023-11-22T01:07:28;1.00;99.90
60293;DHT22;52402;52.670;6.750;2023-11-22T01:09:56;1.00;99.90
60293;DHT22;52402;52.670;6.750;2023-11-22T01:12:32;1.00;99.90
60293;DHT22;52402;52.670;6.750;2023-11-22T01:15:05;1.00;99.90
60293;DHT22;52402;52.670;6.750;2023-11-22T01:17:31;0.90;99.90
60293;DHT22;52402;52.670;6.750;2023-11-22T01:20:02;0.90;99.90
60293;DHT22;52402;52.670;6.750;2023-11-22T01:22:29;0.90;99.90
60293;DHT22;52402;52.670;6.750;2023-11-22T01:24:54;0.90;99.90
60293;DHT22;52402;52.670;6.750;2023-11-22T01:27:20;0.80;99.90
60293;DHT22;52402;52.670;6.750;2023-11-22T01:29:48;0.80;99.90
60293;DHT22;52402;52.670;6.750;2023-11-22T01:32:13;0.70;99.90
60293;DHT22;52402;52.670;6.750;2023-11-22T01:34:46;0.70;99.90
60293;DHT22;52402;52.670;6.750;2023-11-22T01:37:12;0.70;99.90
60293;DHT22;52402;52.670;6.750;2023-11-22T01:39:40;0.70;99.90
60293;DHT22;52402;52.670;6.750;2023-11-22T01:42:08;0.70;99.90
60293;DHT22;52402;52.670;6.750;2023-11-22T01:44:34;0.70;99.90
60293;DHT22;52402;52.670;6.750;2023-11-22T01:47:06;0.70;99.90
60293;DHT22;52402;52.670;6.750;2023-11-22T01:49:32;0.70;99.90
60293;DHT22;52402;52.670;6.750;2023-11-22T01:51:58;0.70;99.90
60293;DHT22;52402;52.670;6.750;2023-11-22T01:54:24;0.70;99.90
60293;DHT22;52402;52.670;6.750;2023-11-22T01:56:50;0.60;99.90
60293;DHT22;52402;52.670;6.750;2023-11-22T01:59:16;0.70;99.90
60293;DHT22;52402;52.670;6.750;2023-11-22T02:01:43;0.70;99.90
60293;DHT22;52402;52.670;6.750;2023-11-22T02:04:12;0.70;99.90
60293;DHT22;52402;52.670;6.750;2023-11-22T02:06:39;0.70;99.90
60293;DHT22;52402;52.670;6.750;2023-11-22T02:09:05;0.70;99.90
60293;DHT22;52402;52.670;6.750;2023-11-22T02:11:30;0.70;99.90
60293;DHT22;52402;52.670;6.750;2023-11-22T02:13:56;0.60;99.90
60293;DHT22;52402;52.670;6.750;2023-11-22T02:16:22;0.60;99.90
60293;DHT22;52402;52.670;6.750;2023-11-22T02:18:48;0.60;99.90
60293;DHT22;52402;52.670;6.750;2023-11-22T02:21:15;0.50;99.90
60293;DHT22;52402;52.670;6.750;2023-11-22T02:23:41;0.50;99.90
60293;DHT22;52402;52.670;6.750;2023-11-22T02:26:07;0.50;99.90
60293;DHT22;52402;52.670;6.750;2023-11-22T02:28:33;0.40;99.90
60293;DHT22;52402;52.670;6.750;2023-11-22T02:30:59;0.40;99.90
60293;DHT22;52402;52.670;6.750;2023-11-22T02:33:27;0.30;99.90
60293;DHT22;52402;52.670;6.750;2023-11-22T02:35:52;0.20;99.90
60293;DHT22;52402;52.670;6.750;2023-11-22T02:38:20;0.20;99.90
60293;DHT22;52402;52.670;6.750;2023-11-22T02:40:46;0.20;99.90
60293;DHT22;52402;52.670;6.750;2023-11-22T02:43:11;0.20;99.90
60293;DHT22;52402;52.670;6.750;2023-11-22T02:45:37;0.20;99.90
60293;DHT22;52402;52.670;6.750;2023-11-22T02:48:04;0.20;99.90
60293;DHT22;52402;52.670;6.750;2023-11-22T02:50:35;0.30;99.90
60293;DHT22;52402;52.670;6.750;2023-11-22T02:53:03;0.20;99.90
60293;DHT22;52402;52.670;6.750;2023-11-22T02:55:32;0.30;99.90
60293;DHT22;52402;52.670;6.750;2023-11-22T02:58:00;0.30;99.90
60293;DHT22;52402;52.670;6.750;2023-11-22T03:00:28;0.30;99.90
60293;DHT22;52402;52.670;6.750;2023-11-22T03:02:59;0.30;99.90
60293;DHT22;52402;52.670;6.750;2023-11-22T03:05:24;0.30;99.90
60293;DHT22;52402;52.670;6.750;2023-11-22T03:07:50;0.30;99.90
60293;DHT22;52402;52.670;6.750;2023-11-22T03:10:23;0.30;99.90
60293;DHT22;52402;52.670;6.750;2023-11-22T03:12:51;0.30;99.90
60293;DHT22;52402;52.670;6.750;2023-11-22T03:15:17;0.30;99.90
60293;DHT22;52402;52.670;6.750;2023-11-22T03:17:42;0.30;99.90
60293;DHT22;52402;52.670;6.750;2023-11-22T03:20:09;0.40;99.90
60293;DHT22;52402;52.670;6.750;2023-11-22T03:22:39;0.30;99.90
60293;DHT22;52402;52.670;6.750;2023-11-22T03:25:05;0.30;99.90
60293;DHT22;52402;52.670;6.750;2023-11-22T03:27:33;0.30;99.90
60293;DHT22;52402;52.670;6.750;2023-11-22T03:29:59;0.20;99.90
60293;DHT22;52402;52.670;6.750;2023-11-22T03:32:25;0.20;99.90
60293;DHT22;52402;52.670;6.750;2023-11-22T03:34:51;0.20;99.90
60293;DHT22;52402;52.670;6.750;2023-11-22T03:37:17;0.20;99.90
60293;DHT22;52402;52.670;6.750;2023-11-22T03:39:48;0.20;99.90
60293;DHT22;52402;52.670;6.750;2023-11-22T03:42:15;0.30;99.90
60293;DHT22;52402;52.670;6.750;2023-11-22T03:44:44;0.30;99.90
60293;DHT22;52402;52.670;6.750;2023-11-22T03:47:14;0.30;99.90
60293;DHT22;52402;52.670;6.750;2023-11-22T03:49:41;0.30;99.90
60293;DHT22;52402;52.670;6.750;2023-11-22T03:52:11;0.30;99.90
60293;DHT22;52402;52.670;6.750;2023-11-22T03:54:37;0.30;99.90
60293;DHT22;52402;52.670;6.750;2023-11-22T03:57:04;0.30;99.90
60293;DHT22;52402;52.670;6.750;2023-11-22T03:59:29;0.40;99.90
60293;DHT22;52402;52.670;6.750;2023-11-22T04:01:55;0.40;99.90
60293;DHT22;52402;52.670;6.750;2023-11-22T04:04:23;0.40;99.90
60293;DHT22;52402;52.670;6.750;2023-11-22T04:06:49;0.40;99.90
60293;DHT22;52402;52.670;6.750;2023-11-22T04:09:15;0.40;99.90
60293;DHT22;52402;52.670;6.750;2023-11-22T04:11:45;0.30;99.90
60293;DHT22;52402;52.670;6.750;2023-11-22T04:14:12;0.30;99.90
60293;DHT22;52402;52.670;6.750;2023-11-22T04:16:40;0.30;99.90
60293;DHT22;52402;52.670;6.750;2023-11-22T04:19:05;0.30;99.90
60293;DHT22;52402;52.670;6.750;2023-11-22T04:21:31;0.30;99.90
60293;DHT22;52402;52.670;6.750;2023-11-22T04:23:57;0.30;99.90
60293;DHT22;52402;52.670;6.750;2023-11-22T04:26:23;0.20;99.90
60293;DHT22;52402;52.670;6.750;2023-11-22T04:28:52;0.30;99.90
60293;DHT22;52402;52.670;6.750;2023-11-22T04:31:18;0.30;99.90
60293;DHT22;52402;52.670;6.750;2023-11-22T04:33:44;0.30;99.90
60293;DHT22;52402;52.670;6.750;2023-11-22T04:36:09;0.20;99.90
60293;DHT22;52402;52.670;6.750;2023-11-22T04:38:35;0.20;99.90
60293;DHT22;52402;52.670;6.750;2023-11-22T04:41:00;0.20;99.90
60293;DHT22;52402;52.670;6.750;2023-11-22T04:43:28;0.20;99.90
60293;DHT22;52402;52.670;6.750;2023-11-22T04:45:56;0.20;99.90
60293;DHT22;52402;52.670;6.750;2023-11-22T04:48:23;0.20;99.90
60293;DHT22;52402;52.670;6.750;2023-11-22T04:50:50;0.20;99.90
60293;DHT22;52402;52.670;6.750;2023-11-22T04:53:19;0.20;99.90
60293;DHT22;52402;52.670;6.750;2023-11-22T04:55:47;0.20;99.90
60293;DHT22;52402;52.670;6.750;2023-11-22T04:58:12;0.10;99.90
60293;DHT22;52402;52.670;6.750;2023-11-22T05:00:40;0.10;99.90
60293;DHT22;52402;52.670;6.750;2023-11-22T05:03:06;0.10;99.90
60293;DHT22;52402;52.670;6.750;2023-11-22T05:05:34;0.10;99.90
60293;DHT22;52402;52.670;6.750;2023-11-22T05:07:59;0.10;99.90
60293;DHT22;52402;52.670;6.750;2023-11-22T05:10:25;0.10;99.90
60293;DHT22;52402;52.670;6.750;2023-11-22T05:12:50;0.10;99.90
60293;DHT22;52402;52.670;6.750;2023-11-22T05:15:16;0.10;99.90
60293;DHT22;52402;52.670;6.750;2023-11-22T05:17:44;0.10;99.90
60293;DHT22;52402;52.670;6.750;2023-11-22T05:20:10;0.10;99.90
60293;DHT22;52402;52.670;6.750;2023-11-22T05:22:37;0.10;99.90
60293;DHT22;52402;52.670;6.750;2023-11-22T05:25:03;0.10;99.90
60293;DHT22;52402;52.670;6.750;2023-11-22T05:27:29;0.10;99.90
60293;DHT22;52402;52.670;6.750;2023-11-22T05:29:55;0.10;99.90
60293;DHT22;52402;52.670;6.750;2023-11-22T05:32:21;0.10;99.90
60293;DHT22;52402;52.670;6.750;2023-11-22T05:34:48;0.00;99.90
60293;DHT22;52402;52.670;6.750;2023-11-22T05:37:13;0.00;99.90
60293;DHT22;52402;52.670;6.750;2023-11-22T05:39:39;0.00;99.90
60293;DHT22;52402;52.670;6.750;2023-11-22T05:42:05;0.00;99.90
60293;DHT22;52402;52.670;6.750;2023-11-22T05:44:32;0.00;99.90
60293;DHT22;52402;52.670;6.750;2023-11-22T05:46:58;0.00;99.90
60293;DHT22;52402;52.670;6.750;2023-11-22T05:49:23;0.00;99.90
60293;DHT22;52402;52.670;6.750;2023-11-22T05:51:49;-0.10;99.90
60293;DHT22;52402;52.670;6.750;2023-11-22T05:54:15;-0.10;99.90
60293;DHT22;52402;52.670;6.750;2023-11-22T05:56:42;-0.10;99.90
60293;DHT22;52402;52.670;6.750;2023-11-22T05:59:08;0.00;99.90
60293;DHT22;52402;52.670;6.750;2023-11-22T06:01:34;0.00;99.90
60293;DHT22;52402;52.670;6.750;2023-11-22T06:03:59;0.00;99.90
60293;DHT22;52402;52.670;6.750;2023-11-22T06:06:25;0.00;99.90
60293;DHT22;52402;52.670;6.750;2023-11-22T06:08:50;0.00;99.90
60293;DHT22;52402;52.670;6.750;2023-11-22T06:11:21;0.00;99.90
60293;DHT22;52402;52.670;6.750;2023-11-22T06:13:47;0.00;99.90
60293;DHT22;52402;52.670;6.750;2023-11-22T06:16:13;0.00;99.90
60293;DHT22;52402;52.670;6.750;2023-11-22T06:18:39;0.00;99.90
60293;DHT22;52402;52.670;6.750;2023-11-22T06:21:09;0.00;99.90
60293;DHT22;52402;52.670;6.750;2023-11-22T06:23:35;0.00;99.90
60293;DHT22;52402;52.670;6.750;2023-11-22T06:26:00;0.00;99.90
60293;DHT22;52402;52.670;6.750;2023-11-22T06:28:26;-0.10;99.90
60293;DHT22;52402;52.670;6.750;2023-11-22T06:30:52;0.00;99.90
60293;DHT22;52402;52.670;6.750;2023-11-22T06:33:18;-0.10;99.90
60293;DHT22;52402;52.670;6.750;2023-11-22T06:35:44;0.00;99.90
60293;DHT22;52402;52.670;6.750;2023-11-22T06:38:09;0.00;99.90
60293;DHT22;52402;52.670;6.750;2023-11-22T06:40:35;0.00;99.90
60293;DHT22;52402;52.670;6.750;2023-11-22T06:43:01;-0.10;99.90
60293;DHT22;52402;52.670;6.750;2023-11-22T06:45:26;0.00;99.90
60293;DHT22;52402;52.670;6.750;2023-11-22T06:47:52;0.00;99.90
60293;DHT22;52402;52.670;6.750;2023-11-22T06:50:18;0.00;99.90
60293;DHT22;52402;52.670;6.750;2023-11-22T06:52:43;0.00;99.90
60293;DHT22;52402;52.670;6.750;2023-11-22T06:55:14;0.00;99.90
60293;DHT22;52402;52.670;6.750;2023-11-22T06:57:39;0.00;99.90
60293;DHT22;52402;52.670;6.750;2023-11-22T07:00:07;0.10;99.90
60293;DHT22;52402;52.670;6.750;2023-11-22T07:02:36;0.10;99.90
60293;DHT22;52402;52.670;6.750;2023-11-22T07:05:03;0.10;99.90
60293;DHT22;52402;52.670;6.750;2023-11-22T07:07:29;0.10;99.90
60293;DHT22;52402;52.670;6.750;2023-11-22T07:09:58;0.10;99.90
60293;DHT22;52402;52.670;6.750;2023-11-22T07:12:27;0.10;99.90
60293;DHT22;52402;52.670;6.750;2023-11-22T07:14:52;0.10;99.90
60293;DHT22;52402;52.670;6.750;2023-11-22T07:17:21;0.10;99.90
60293;DHT22;52402;52.670;6.750;2023-11-22T07:19:47;0.10;99.90
60293;DHT22;52402;52.670;6.750;2023-11-22T07:22:14;0.10;99.90
60293;DHT22;52402;52.670;6.750;2023-11-22T07:24:45;0.20;99.90
60293;DHT22;52402;52.670;6.750;2023-11-22T07:27:14;0.20;99.90
60293;DHT22;52402;52.670;6.750;2023-11-22T07:29:40;0.20;99.90
60293;DHT22;52402;52.670;6.750;2023-11-22T07:32:06;0.20;99.90
60293;DHT22;52402;52.670;6.750;2023-11-22T07:34:34;0.20;99.90
60293;DHT22;52402;52.670;6.750;2023-11-22T07:37:02;0.20;99.90
60293;DHT22;52402;52.670;6.750;2023-11-22T07:39:28;0.20;99.90
60293;DHT22;52402;52.670;6.750;2023-11-22T07:41:54;0.20;99.90
60293;DHT22;52402;52.670;6.750;2023-11-22T07:44:21;0.30;99.90
60293;DHT22;52402;52.670;6.750;2023-11-22T07:46:47;0.30;99.90
60293;DHT22;52402;52.670;6.750;2023-11-22T07:49:15;0.30;99.90
60293;DHT22;52402;52.670;6.750;2023-11-22T07:51:46;0.30;99.90
60293;DHT22;52402;52.670;6.750;2023-11-22T07:54:12;0.30;99.90
60293;DHT22;52402;52.670;6.750;2023-11-22T07:56:41;0.40;99.90
60293;DHT22;52402;52.670;6.750;2023-11-22T07:59:09;0.40;99.90
60293;DHT22;52402;52.670;6.750;2023-11-22T08:01:36;0.50;99.90
60293;DHT22;52402;52.670;6.750;2023-11-22T08:04:02;0.50;99.90
60293;DHT22;52402;52.670;6.750;2023-11-22T08:06:28;0.60;99.90
60293;DHT22;52402;52.670;6.750;2023-11-22T08:08:53;0.70;99.90
60293;DHT22;52402;52.670;6.750;2023-11-22T08:11:19;0.80;99.90
60293;DHT22;52402;52.670;6.750;2023-11-22T08:13:46;0.80;99.90
60293;DHT22;52402;52.670;6.750;2023-11-22T08:16:13;0.90;99.90
60293;DHT22;52402;52.670;6.750;2023-11-22T08:18:39;1.00;99.90
60293;DHT22;52402;52.670;6.750;2023-11-22T08:21:06;1.10;99.90
60293;DHT22;52402;52.670;6.750;2023-11-22T08:23:31;1.20;99.90
60293;DHT22;52402;52.670;6.750;2023-11-22T08:26:00;1.20;99.90
60293;DHT22;52402;52.670;6.750;2023-11-22T08:28:27;1.30;99.90
60293;DHT22;52402;52.670;6.750;2023-11-22T08:30:52;1.30;99.90
60293;DHT22;52402;52.670;6.750;2023-11-22T08:33:19;1.30;99.90
60293;DHT22;52402;52.670;6.750;2023-11-22T08:35:44;1.30;99.90
60293;DHT22;52402;52.670;6.750;2023-11-22T08:38:16;1.40;99.90
60293;DHT22;52402;52.670;6.750;2023-11-22T08:40:42;1.40;99.90
60293;DHT22;52402;52.670;6.750;2023-11-22T08:43:07;1.50;99.90
60293;DHT22;52402;52.670;6.750;2023-11-22T08:45:33;1.60;99.90
60293;DHT22;52402;52.670;6.750;2023-11-22T08:48:00;1.70;99.90
60293;DHT22;52402;52.670;6.750;2023-11-22T08:50:26;1.70;99.90
60293;DHT22;52402;52.670;6.750;2023-11-22T08:53:00;1.80;99.90
60293;DHT22;52402;52.670;6.750;2023-11-22T08:55:29;1.80;99.90
60293;DHT22;52402;52.670;6.750;2023-11-22T08:57:54;1.80;99.90
60293;DHT22;52402;52.670;6.750;2023-11-22T09:00:20;1.90;99.90
60293;DHT22;52402;52.670;6.750;2023-11-22T09:02:49;1.90;99.90
60293;DHT22;52402;52.670;6.750;2023-11-22T09:05:15;1.90;99.90
60293;DHT22;52402;52.670;6.750;2023-11-22T09:07:43;2.00;99.90
60293;DHT22;52402;52.670;6.750;2023-11-22T09:10:10;2.00;99.90
60293;DHT22;52402;52.670;6.750;2023-11-22T09:12:39;2.10;99.90
60293;DHT22;52402;52.670;6.750;2023-11-22T09:15:09;2.10;99.90
60293;DHT22;52402;52.670;6.750;2023-11-22T09:17:39;2.20;99.90
60293;DHT22;52402;52.670;6.750;2023-11-22T09:20:12;2.30;99.90
60293;DHT22;52402;52.670;6.750;2023-11-22T09:22:44;2.30;99.90
60293;DHT22;52402;52.670;6.750;2023-11-22T09:25:12;2.40;99.90
60293;DHT22;52402;52.670;6.750;2023-11-22T09:27:40;2.40;99.90
60293;DHT22;52402;52.670;6.750;2023-11-22T09:30:08;2.50;99.90
60293;DHT22;52402;52.670;6.750;2023-11-22T09:32:46;2.50;99.90
60293;DHT22;52402;52.670;6.750;2023-11-22T09:35:13;2.60;99.90
60293;DHT22;52402;52.670;6.750;2023-11-22T09:37:40;2.60;99.90
60293;DHT22;52402;52.670;6.750;2023-11-22T09:40:08;2.70;99.90
60293;DHT22;52402;52.670;6.750;2023-11-22T09:42:34;2.70;99.90
60293;DHT22;52402;52.670;6.750;2023-11-22T09:45:00;2.70;99.90
60293;DHT22;52402;52.670;6.750;2023-11-22T09:47:28;2.70;99.90
60293;DHT22;52402;52.670;6.750;2023-11-22T09:50:05;2.80;99.90
60293;DHT22;52402;52.670;6.750;2023-11-22T09:52:34;2.80;99.90
60293;DHT22;52402;52.670;6.750;2023-11-22T09:55:02;2.90;99.90
60293;DHT22;52402;52.670;6.750;2023-11-22T09:57:30;2.90;99.90
60293;DHT22;52402;52.670;6.750;2023-11-22T09:59:57;3.00;99.90
60293;DHT22;52402;52.670;6.750;2023-11-22T10:02:26;3.00;99.90
60293;DHT22;52402;52.670;6.750;2023-11-22T10:04:54;3.10;99.90
60293;DHT22;52402;52.670;6.750;2023-11-22T10:07:22;3.20;99.90
60293;DHT22;52402;52.670;6.750;2023-11-22T10:09:50;3.20;99.90
60293;DHT22;52402;52.670;6.750;2023-11-22T10:12:21;3.30;99.90
60293;DHT22;52402;52.670;6.750;2023-11-22T10:14:47;3.30;99.90
60293;DHT22;52402;52.670;6.750;2023-11-22T10:17:21;3.40;99.90
60293;DHT22;52402;52.670;6.750;2023-11-22T10:19:52;3.40;99.90
60293;DHT22;52402;52.670;6.750;2023-11-22T10:22:17;3.40;99.90
60293;DHT22;52402;52.670;6.750;2023-11-22T10:24:43;3.40;99.90
60293;DHT22;52402;52.670;6.750;2023-11-22T10:27:10;3.50;99.90
60293;DHT22;52402;52.670;6.750;2023-11-22T10:29:36;3.50;99.90
60293;DHT22;52402;52.670;6.750;2023-11-22T10:32:07;3.50;99.90
60293;DHT22;52402;52.670;6.750;2023-11-22T10:34:33;3.60;99.90
60293;DHT22;52402;52.670;6.750;2023-11-22T10:37:02;3.60;99.90
60293;DHT22;52402;52.670;6.750;2023-11-22T10:39:32;3.60;99.90
60293;DHT22;52402;52.670;6.750;2023-11-22T10:42:05;3.60;99.90
60293;DHT22;52402;52.670;6.750;2023-11-22T10:44:37;3.70;99.90
60293;DHT22;52402;52.670;6.750;2023-11-22T10:47:09;3.70;99.90
60293;DHT22;52402;52.670;6.750;2023-11-22T10:49:35;3.70;99.90
60293;DHT22;52402;52.670;6.750;2023-11-22T10:52:07;3.80;99.90
60293;DHT22;52402;52.670;6.750;2023-11-22T10:54:36;3.80;99.90
60293;DHT22;52402;52.670;6.750;2023-11-22T10:57:03;3.90;99.90
60293;DHT22;52402;52.670;6.750;2023-11-22T10:59:30;4.00;99.90
60293;DHT22;52402;52.670;6.750;2023-11-22T11:01:58;4.00;99.90
60293;DHT22;52402;52.670;6.750;2023-11-22T11:05:08;4.10;99.90
60293;DHT22;52402;52.670;6.750;2023-11-22T11:07:27;4.20;99.90
60293;DHT22;52402;52.670;6.750;2023-11-22T11:09:56;4.20;99.90
60293;DHT22;52402;52.670;6.750;2023-11-22T11:12:25;4.20;99.90
60293;DHT22;52402;52.670;6.750;2023-11-22T11:14:53;4.20;99.90
60293;DHT22;52402;52.670;6.750;2023-11-22T11:17:19;4.10;99.90
60293;DHT22;52402;52.670;6.750;2023-11-22T11:19:45;4.00;99.90
60293;DHT22;52402;52.670;6.750;2023-11-22T11:22:13;4.00;99.90
60293;DHT22;52402;52.670;6.750;2023-11-22T11:24:39;3.90;99.90
60293;DHT22;52402;52.670;6.750;2023-11-22T11:27:13;3.90;99.90
60293;DHT22;52402;52.670;6.750;2023-11-22T11:29:40;4.00;99.90
60293;DHT22;52402;52.670;6.750;2023-11-22T11:32:32;4.10;99.90
60293;DHT22;52402;52.670;6.750;2023-11-22T11:35:00;4.10;99.90
60293;DHT22;52402;52.670;6.750;2023-11-22T11:37:29;4.20;99.90
60293;DHT22;52402;52.670;6.750;2023-11-22T11:39:55;4.20;99.90
60293;DHT22;52402;52.670;6.750;2023-11-22T11:42:20;4.20;99.90
60293;DHT22;52402;52.670;6.750;2023-11-22T11:47:26;4.30;99.90
60293;DHT22;52402;52.670;6.750;2023-11-22T11:49:52;4.40;99.90
60293;DHT22;52402;52.670;6.750;2023-11-22T11:52:18;4.50;99.90
60293;DHT22;52402;52.670;6.750;2023-11-22T11:54:44;4.50;99.90
60293;DHT22;52402;52.670;6.750;2023-11-22T11:57:13;4.70;99.90
60293;DHT22;52402;52.670;6.750;2023-11-22T11:59:38;4.70;99.90
60293;DHT22;52402;52.670;6.750;2023-11-22T12:02:04;4.80;99.90
60293;DHT22;52402;52.670;6.750;2023-11-22T12:04:31;4.90;99.90
60293;DHT22;52402;52.670;6.750;2023-11-22T12:06:58;4.80;99.90
60293;DHT22;52402;52.670;6.750;2023-11-22T12:09:27;4.80;99.90
60293;DHT22;52402;52.670;6.750;2023-11-22T12:11:54;4.90;99.90
60293;DHT22;52402;52.670;6.750;2023-11-22T12:14:20;4.90;99.90
60293;DHT22;52402;52.670;6.750;2023-11-22T12:16:46;5.00;99.90
60293;DHT22;52402;52.670;6.750;2023-11-22T12:19:22;5.00;99.90
60293;DHT22;52402;52.670;6.750;2023-11-22T12:21:48;5.10;99.90
60293;DHT22;52402;52.670;6.750;2023-11-22T12:24:14;5.20;99.90
60293;DHT22;52402;52.670;6.750;2023-11-22T12:26:45;5.20;99.90
60293;DHT22;52402;52.670;6.750;2023-11-22T12:29:19;5.30;99.90
60293;DHT22;52402;52.670;6.750;2023-11-22T12:31:49;5.40;99.90
60293;DHT22;52402;52.670;6.750;2023-11-22T12:34:22;5.30;99.90
60293;DHT22;52402;52.670;6.750;2023-11-22T12:36:51;5.30;99.90
60293;DHT22;52402;52.670;6.750;2023-11-22T12:39:16;5.30;99.90
60293;DHT22;52402;52.670;6.750;2023-11-22T12:41:50;5.30;99.90
60293;DHT22;52402;52.670;6.750;2023-11-22T12:44:17;5.30;99.90
60293;DHT22;52402;52.670;6.750;2023-11-22T12:46:50;5.30;99.90
60293;DHT22;52402;52.670;6.750;2023-11-22T12:49:21;5.30;99.90
60293;DHT22;52402;52.670;6.750;2023-11-22T12:51:52;5.30;99.90
60293;DHT22;52402;52.670;6.750;2023-11-22T12:54:18;5.20;99.90
60293;DHT22;52402;52.670;6.750;2023-11-22T12:56:47;5.20;99.90
60293;DHT22;52402;52.670;6.750;2023-11-22T12:59:14;5.20;99.90
60293;DHT22;52402;52.670;6.750;2023-11-22T13:01:40;5.10;99.90
60293;DHT22;52402;52.670;6.750;2023-11-22T13:04:06;5.10;99.90
60293;DHT22;52402;52.670;6.750;2023-11-22T13:06:32;5.10;99.90
60293;DHT22;52402;52.670;6.750;2023-11-22T13:08:58;5.00;99.90
60293;DHT22;52402;52.670;6.750;2023-11-22T13:11:24;5.00;99.90
60293;DHT22;52402;52.670;6.750;2023-11-22T13:13:50;5.00;99.90
60293;DHT22;52402;52.670;6.750;2023-11-22T13:16:15;5.00;99.90
60293;DHT22;52402;52.670;6.750;2023-11-22T13:18:44;5.00;99.90
60293;DHT22;52402;52.670;6.750;2023-11-22T13:21:10;5.00;99.90
60293;DHT22;52402;52.670;6.750;2023-11-22T13:23:36;5.00;99.90
60293;DHT22;52402;52.670;6.750;2023-11-22T13:26:01;5.00;99.90
60293;DHT22;52402;52.670;6.750;2023-11-22T13:28:28;5.00;99.90
60293;DHT22;52402;52.670;6.750;2023-11-22T13:30:56;5.00;99.90
60293;DHT22;52402;52.670;6.750;2023-11-22T13:33:29;5.00;99.90
60293;DHT22;52402;52.670;6.750;2023-11-22T13:35:55;5.00;99.90
60293;DHT22;52402;52.670;6.750;2023-11-22T13:38:28;5.00;99.90
60293;DHT22;52402;52.670;6.750;2023-11-22T13:40:54;5.00;99.90
60293;DHT22;52402;52.670;6.750;2023-11-22T13:43:19;5.00;99.90
60293;DHT22;52402;52.670;6.750;2023-11-22T13:45:45;5.00;99.90
60293;DHT22;52402;52.670;6.750;2023-11-22T13:48:15;5.00;99.90
60293;DHT22;52402;52.670;6.750;2023-11-22T13:50:41;5.00;99.90
60293;DHT22;52402;52.670;6.750;2023-11-22T13:53:10;5.00;99.90
60293;DHT22;52402;52.670;6.750;2023-11-22T13:55:36;5.00;99.90
60293;DHT22;52402;52.670;6.750;2023-11-22T13:58:02;5.00;99.90
60293;DHT22;52402;52.670;6.750;2023-11-22T14:00:29;5.00;99.90
60293;DHT22;52402;52.670;6.750;2023-11-22T14:03:01;5.00;99.90
60293;DHT22;52402;52.670;6.750;2023-11-22T14:05:32;5.00;99.90
60293;DHT22;52402;52.670;6.750;2023-11-22T14:08:02;4.90;99.90
60293;DHT22;52402;52.670;6.750;2023-11-22T14:10:27;4.90;99.90
60293;DHT22;52402;52.670;6.750;2023-11-22T14:12:54;4.90;99.90
60293;DHT22;52402;52.670;6.750;2023-11-22T14:15:25;4.90;99.90
60293;DHT22;52402;52.670;6.750;2023-11-22T14:17:51;5.00;99.90
60293;DHT22;52402;52.670;6.750;2023-11-22T14:20:18;4.90;99.90
60293;DHT22;52402;52.670;6.750;2023-11-22T14:22:46;5.00;99.90
60293;DHT22;52402;52.670;6.750;2023-11-22T14:25:12;5.00;99.90
60293;DHT22;52402;52.670;6.750;2023-11-22T14:27:42;5.00;99.90
60293;DHT22;52402;52.670;6.750;2023-11-22T14:30:09;5.00;99.90
60293;DHT22;52402;52.670;6.750;2023-11-22T14:32:36;4.90;99.90
60293;DHT22;52402;52.670;6.750;2023-11-22T14:35:08;5.00;99.90
60293;DHT22;52402;52.670;6.750;2023-11-22T14:37:34;5.00;99.90
60293;DHT22;52402;52.670;6.750;2023-11-22T14:40:01;5.00;99.90
60293;DHT22;52402;52.670;6.750;2023-11-22T14:42:29;5.00;99.90
60293;DHT22;52402;52.670;6.750;2023-11-22T14:44:57;4.90;99.90
60293;DHT22;52402;52.670;6.750;2023-11-22T14:47:22;5.00;99.90
60293;DHT22;52402;52.670;6.750;2023-11-22T14:49:53;5.00;99.90
60293;DHT22;52402;52.670;6.750;2023-11-22T14:52:19;4.90;99.90
60293;DHT22;52402;52.670;6.750;2023-11-22T14:54:46;4.90;99.90
60293;DHT22;52402;52.670;6.750;2023-11-22T14:57:13;4.90;99.90
60293;DHT22;52402;52.670;6.750;2023-11-22T14:59:39;4.90;99.90
60293;DHT22;52402;52.670;6.750;2023-11-22T15:02:05;4.80;99.90
60293;DHT22;52402;52.670;6.750;2023-11-22T15:04:34;4.80;99.90
60293;DHT22;52402;52.670;6.750;2023-11-22T15:07:02;4.80;99.90
60293;DHT22;52402;52.670;6.750;2023-11-22T15:09:27;4.80;99.90
60293;DHT22;52402;52.670;6.750;2023-11-22T15:11:53;4.70;99.90
60293;DHT22;52402;52.670;6.750;2023-11-22T15:14:20;4.70;99.90
60293;DHT22;52402;52.670;6.750;2023-11-22T15:16:47;4.70;99.90
60293;DHT22;52402;52.670;6.750;2023-11-22T15:19:13;4.70;99.90
60293;DHT22;52402;52.670;6.750;2023-11-22T15:21:39;4.70;99.90
60293;DHT22;52402;52.670;6.750;2023-11-22T15:24:05;4.70;99.90
60293;DHT22;52402;52.670;6.750;2023-11-22T15:26:30;4.70;99.90
60293;DHT22;52402;52.670;6.750;2023-11-22T15:28:56;4.70;99.90
60293;DHT22;52402;52.670;6.750;2023-11-22T15:31:22;4.70;99.90
60293;DHT22;52402;52.670;6.750;2023-11-22T15:33:48;4.70;99.90
60293;DHT22;52402;52.670;6.750;2023-11-22T15:36:17;4.70;99.90
60293;DHT22;52402;52.670;6.750;2023-11-22T15:38:42;4.70;99.90
60293;DHT22;52402;52.670;6.750;2023-11-22T15:41:08;4.60;99.90
60293;DHT22;52402;52.670;6.750;2023-11-22T15:43:34;4.70;99.90
60293;DHT22;52402;52.670;6.750;2023-11-22T15:46:00;4.70;99.90
60293;DHT22;52402;52.670;6.750;2023-11-22T15:48:25;4.70;99.90